Georgetown, Massachusetts
Current Conditions -  °F | °C
As of 11:54 PM on Sunday 21 Dec 2014 (Local Time) from KLWM Reporting Station
Overcast Overcast  
Wind Chill: 32°   Ceiling: 5500
Heat Index: 32°   Visibility: 10mi
Dew Point: 22°   Wind: 3mph
Humidity: 66%   Direction: 360°N
Pressure: 30.38"   Gusts: NA
Location:  42.73°N, 70.99°W
Report Text: KLWM 220454Z AUTO 36003KT 10SM OVC055 00/M06 A3038 RMK AO2 SLP290 T00001056 400111028
Loading
Personal Weather Stations






























Interactive Weather Map New forecast layout! Learn more

10-Day Weather Forecast

Advertisements
Track Severe Weather on mobile